Time;durP1;ratioP1;P1;durP2;ratioP2;P2;SDS_P1;SDS_P2;PMS_P1;PMS_P2;Temp;Humidity;BMP_temperature;BMP_pressure;BME280_temperature;BME280_humidity;BME280_pressure;Samples;Min_cycle;Max_cycle;Signal;HPM_P1;HPM_P2
2022/07/31 00:02:11;;;;;;;5.13;3.67;;;25.10;58.90;;;;;;5112224;28;20437;-69
2022/07/31 00:04:37;;;;;;;5.00;3.60;;;25.10;58.90;;;;;;5111863;28;20384;-70
2022/07/31 00:07:03;;;;;;;5.03;3.70;;;25.10;58.90;;;;;;5111970;28;20922;-69
2022/07/31 00:09:28;;;;;;;5.80;3.75;;;25.10;58.90;;;;;;5112171;28;20805;-69
2022/07/31 00:11:54;;;;;;;5.10;3.80;;;25.10;58.90;;;;;;5112142;28;20880;-71
2022/07/31 00:14:20;;;;;;;4.72;3.50;;;25.10;58.80;;;;;;5112202;28;20764;-69
2022/07/31 00:16:45;;;;;;;3.83;3.30;;;25.10;58.90;;;;;;5111530;28;20395;-69
2022/07/31 00:19:11;;;;;;;4.93;3.50;;;25.10;58.90;;;;;;5112163;28;20385;-69
2022/07/31 00:21:37;;;;;;;4.27;3.13;;;25.10;58.80;;;;;;5102056;28;20388;-69
2022/07/31 00:24:03;;;;;;;4.55;3.28;;;25.10;58.90;;;;;;5112154;28;20471;-69
2022/07/31 00:26:28;;;;;;;4.23;3.20;;;25.10;58.80;;;;;;5111655;28;20896;-69
2022/07/31 00:28:54;;;;;;;4.07;3.08;;;25.10;58.90;;;;;;5111454;28;20422;-72
2022/07/31 00:31:19;;;;;;;3.93;2.93;;;25.10;58.90;;;;;;5111865;28;20433;-69
2022/07/31 00:33:45;;;;;;;3.93;3.13;;;25.10;58.70;;;;;;5111750;28;20384;-69
2022/07/31 00:36:11;;;;;;;4.00;2.78;;;25.10;58.60;;;;;;5102009;28;20471;-69
2022/07/31 00:38:37;;;;;;;3.90;3.10;;;25.10;58.70;;;;;;5111225;28;20872;-69
2022/07/31 00:41:03;;;;;;;3.65;2.75;;;25.00;58.70;;;;;;5102064;28;20392;-70
2022/07/31 00:43:28;;;;;;;3.97;2.90;;;25.10;58.80;;;;;;5101564;28;21007;-69
2022/07/31 00:45:56;;;;;;;3.88;2.90;;;25.10;58.70;;;;;;5111410;28;20449;-70
2022/07/31 00:48:22;;;;;;;3.70;2.77;;;25.00;58.60;;;;;;5111799;28;20419;-69
2022/07/31 00:50:48;;;;;;;3.70;2.80;;;25.10;58.70;;;;;;5101080;28;20388;-69
2022/07/31 00:53:13;;;;;;;4.00;2.80;;;25.00;58.60;;;;;;5098706;28;21159;-69
2022/07/31 00:55:39;;;;;;;3.42;2.67;;;25.00;58.60;;;;;;5111265;28;20388;-69
2022/07/31 00:58:05;;;;;;;3.95;2.92;;;25.00;58.60;;;;;;5111090;28;21229;-69
2022/07/31 01:00:30;;;;;;;4.13;2.90;;;25.00;58.60;;;;;;5110830;28;20380;-69
2022/07/31 01:02:56;;;;;;;3.90;2.80;;;25.00;58.60;;;;;;5100796;28;20397;-69
2022/07/31 01:05:21;;;;;;;3.43;3.10;;;25.00;58.70;;;;;;5111056;28;20416;-70
2022/07/31 01:07:48;;;;;;;3.65;2.70;;;25.00;58.60;;;;;;5100557;28;20488;-70
2022/07/31 01:10:24;;;;;;;3.30;2.83;;;25.00;58.60;;;;;;5111215;28;20387;-70
2022/07/31 01:13:07;;;;;;;3.17;2.88;;;25.00;58.60;;;;;;5110739;28;20396;-69
2022/07/31 01:15:36;;;;;;;3.70;2.80;;;25.00;58.70;;;;;;5108504;28;20471;-68
2022/07/31 01:18:03;;;;;;;2.88;2.60;;;25.00;58.80;;;;;;5101016;28;20397;-69
2022/07/31 01:20:31;;;;;;;3.47;2.70;;;25.00;58.60;;;;;;5110501;28;20437;-70
2022/07/31 01:23:35;;;;;;;2.90;2.60;;;25.00;58.70;;;;;;5110644;28;20395;-69
2022/07/31 01:26:01;;;;;;;3.42;2.72;;;25.00;58.70;;;;;;5109631;28;20867;-71
2022/07/31 01:28:45;;;;;;;3.28;2.50;;;25.00;58.70;;;;;;5110551;28;20401;-70
2022/07/31 01:31:17;;;;;;;3.13;2.40;;;25.00;58.70;;;;;;5107848;28;20443;-70
2022/07/31 01:33:49;;;;;;;3.10;2.60;;;25.00;58.60;;;;;;5110731;28;20914;-69
2022/07/31 01:36:25;;;;;;;3.00;2.30;;;25.00;58.70;;;;;;5108311;28;20505;-70
2022/07/31 01:38:54;;;;;;;3.33;2.50;;;24.90;58.50;;;;;;5110019;28;20395;-69
2022/07/31 01:41:26;;;;;;;2.38;2.17;;;25.00;58.60;;;;;;5110620;28;20464;-69
2022/07/31 01:43:55;;;;;;;2.60;2.40;;;24.90;58.70;;;;;;5107991;28;20384;-69
2022/07/31 01:46:23;;;;;;;2.50;2.30;;;25.00;58.60;;;;;;5110427;28;20380;-69
2022/07/31 01:48:51;;;;;;;3.13;2.35;;;25.00;58.50;;;;;;5109745;28;20416;-70
2022/07/31 01:51:19;;;;;;;2.67;2.47;;;25.00;58.60;;;;;;5110309;28;20380;-69
2022/07/31 01:53:47;;;;;;;2.85;2.55;;;24.90;58.50;;;;;;5109811;28;20419;-70
2022/07/31 01:56:17;;;;;;;2.40;2.20;;;24.90;58.50;;;;;;5107864;28;20407;-70
2022/07/31 01:58:44;;;;;;;2.72;2.42;;;24.90;58.50;;;;;;5101784;28;20738;-69
2022/07/31 02:01:11;;;;;;;3.20;2.50;;;24.90;58.60;;;;;;5110176;28;20384;-69
2022/07/31 02:03:38;;;;;;;3.30;2.50;;;24.90;58.30;;;;;;5110101;28;20479;-69
2022/07/31 02:06:04;;;;;;;2.40;2.20;;;24.90;58.50;;;;;;5110123;28;20939;-69
2022/07/31 02:08:31;;;;;;;2.53;2.33;;;24.90;58.40;;;;;;5111005;28;20515;-70
2022/07/31 02:10:58;;;;;;;2.45;2.22;;;24.90;58.20;;;;;;5111472;28;20457;-69
2022/07/31 02:13:26;;;;;;;2.42;2.20;;;24.90;58.10;;;;;;5111799;28;20517;-69
2022/07/31 02:15:54;;;;;;;2.60;2.30;;;24.90;58.00;;;;;;5112017;28;20388;-69
2022/07/31 02:18:21;;;;;;;3.17;2.30;;;24.90;58.30;;;;;;5111952;28;20392;-69
2022/07/31 02:20:50;;;;;;;2.25;2.03;;;24.90;57.90;;;;;;5111385;28;20395;-69
2022/07/31 02:23:16;;;;;;;2.60;2.20;;;24.90;58.30;;;;;;5111887;28;20546;-69
2022/07/31 02:25:43;;;;;;;2.75;2.28;;;24.90;58.30;;;;;;5111884;28;20391;-69
2022/07/31 02:28:14;;;;;;;2.67;2.47;;;24.90;58.40;;;;;;5111794;28;20760;-69
2022/07/31 02:30:42;;;;;;;2.60;2.40;;;24.90;58.40;;;;;;5111325;28;20392;-68
2022/07/31 02:33:12;;;;;;;2.40;2.20;;;24.80;58.40;;;;;;5093503;28;20385;-69
2022/07/31 02:35:41;;;;;;;2.30;2.10;;;24.90;58.40;;;;;;5111814;28;20381;-69
2022/07/31 02:38:08;;;;;;;2.53;2.30;;;24.90;58.50;;;;;;5111794;28;20396;-69
2022/07/31 02:40:35;;;;;;;2.40;2.17;;;24.90;58.50;;;;;;5111181;28;20918;-69
2022/07/31 02:43:02;;;;;;;2.40;2.20;;;24.80;58.40;;;;;;5111519;28;20376;-69
2022/07/31 02:45:28;;;;;;;2.17;1.97;;;24.80;58.40;;;;;;5111652;28;20386;-69
2022/07/31 02:47:54;;;;;;;2.60;2.40;;;24.80;58.40;;;;;;5093540;28;20477;-69
2022/07/31 02:50:20;;;;;;;2.30;2.10;;;24.80;58.40;;;;;;5111639;28;20408;-69
2022/07/31 02:52:46;;;;;;;2.20;2.00;;;24.80;58.40;;;;;;5110862;28;20418;-69
2022/07/31 02:55:12;;;;;;;2.17;1.98;;;24.80;58.40;;;;;;5093185;28;20384;-69
2022/07/31 02:57:38;;;;;;;2.40;2.20;;;24.80;58.40;;;;;;5111534;28;20380;-69
2022/07/31 03:00:18;;;;;;;2.40;2.20;;;24.80;58.40;;;;;;5111453;28;20433;-69
2022/07/31 03:02:43;;;;;;;2.30;2.03;;;24.80;58.40;;;;;;5111179;28;20445;-69
2022/07/31 03:05:09;;;;;;;2.40;2.20;;;24.80;58.40;;;;;;5111389;28;20372;-69
2022/07/31 03:07:35;;;;;;;2.60;2.30;;;24.80;58.50;;;;;;5114913;28;20423;-69
2022/07/31 03:10:00;;;;;;;2.33;2.13;;;24.80;58.50;;;;;;5096787;28;20899;-69
2022/07/31 03:12:26;;;;;;;2.40;2.20;;;24.80;58.50;;;;;;5115322;28;20380;-69
2022/07/31 03:14:53;;;;;;;2.50;2.30;;;24.80;58.40;;;;;;5096619;28;20381;-69
2022/07/31 03:17:19;;;;;;;2.15;1.90;;;24.80;58.40;;;;;;5115129;28;20857;-69
2022/07/31 03:19:46;;;;;;;2.40;2.20;;;24.80;58.40;;;;;;5096971;28;20931;-69
2022/07/31 03:22:12;;;;;;;2.50;2.28;;;24.80;58.40;;;;;;5114863;28;20752;-69
2022/07/31 03:24:38;;;;;;;2.53;2.33;;;24.80;58.40;;;;;;5114405;28;20401;-69
2022/07/31 03:27:04;;;;;;;2.40;2.20;;;24.80;58.40;;;;;;5114540;28;20412;-69
2022/07/31 03:29:39;;;;;;;2.40;2.20;;;24.80;58.50;;;;;;5114859;28;20482;-69
2022/07/31 03:32:05;;;;;;;3.10;2.60;;;24.80;58.40;;;;;;5096627;28;20876;-69
2022/07/31 03:34:31;;;;;;;2.55;2.35;;;24.80;58.30;;;;;;5114889;28;20471;-69
2022/07/31 03:36:57;;;;;;;2.40;2.20;;;24.80;58.20;;;;;;5114378;28;21025;-70
2022/07/31 03:39:24;;;;;;;2.60;2.40;;;24.80;58.30;;;;;;5096566;28;20767;-69
2022/07/31 03:41:51;;;;;;;2.42;2.20;;;24.70;58.30;;;;;;5096353;28;20456;-69
2022/07/31 03:44:18;;;;;;;2.60;2.40;;;24.80;58.20;;;;;;5114623;28;20395;-69
2022/07/31 03:46:44;;;;;;;2.35;2.00;;;24.80;58.20;;;;;;5114149;28;20383;-69
2022/07/31 03:49:09;;;;;;;2.70;2.50;;;24.80;58.30;;;;;;5114568;28;20736;-69
2022/07/31 03:51:35;;;;;;;2.67;2.42;;;24.80;58.20;;;;;;5096246;28;20452;-69
2022/07/31 03:54:01;;;;;;;2.60;2.40;;;24.80;58.30;;;;;;5096306;28;20394;-69
2022/07/31 03:56:27;;;;;;;2.40;2.20;;;24.70;58.20;;;;;;5114455;28;20475;-68
2022/07/31 03:58:53;;;;;;;2.50;2.30;;;24.80;58.30;;;;;;5114076;28;20384;-69
2022/07/31 04:01:20;;;;;;;2.33;2.10;;;24.70;58.20;;;;;;5114365;28;20878;-69
2022/07/31 04:03:46;;;;;;;2.38;2.17;;;24.70;58.20;;;;;;5114392;28;20380;-69
2022/07/31 04:06:11;;;;;;;2.25;2.05;;;24.70;58.30;;;;;;5114091;28;20468;-69
2022/07/31 04:08:37;;;;;;;2.43;2.13;;;24.70;58.20;;;;;;5113733;28;20453;-69
2022/07/31 04:11:03;;;;;;;2.55;2.30;;;24.70;58.20;;;;;;5113935;28;20383;-69
2022/07/31 04:13:29;;;;;;;2.20;2.00;;;24.70;58.90;;;;;;5114218;28;20373;-69
2022/07/31 04:15:54;;;;;;;2.00;1.80;;;24.70;58.30;;;;;;5114056;28;20395;-69
2022/07/31 04:18:20;;;;;;;2.75;2.40;;;24.70;58.30;;;;;;5113611;28;20376;-69
2022/07/31 04:20:45;;;;;;;2.40;2.20;;;24.70;58.20;;;;;;5113678;28;20471;-69
2022/07/31 04:23:11;;;;;;;2.37;2.00;;;24.70;58.20;;;;;;5095609;28;20739;-69
2022/07/31 04:25:37;;;;;;;2.30;2.10;;;24.70;58.20;;;;;;5095622;28;20388;-69
2022/07/31 04:28:02;;;;;;;2.50;2.30;;;24.70;58.20;;;;;;5113823;28;20416;-69
2022/07/31 04:30:28;;;;;;;2.30;2.10;;;24.70;58.20;;;;;;5095545;28;20788;-69
2022/07/31 04:32:54;;;;;;;1.98;1.77;;;24.70;58.20;;;;;;5113365;28;20388;-69
2022/07/31 04:35:19;;;;;;;2.03;1.93;;;24.70;58.10;;;;;;5113615;28;20754;-69
2022/07/31 04:37:45;;;;;;;2.20;2.00;;;24.70;58.20;;;;;;5113456;28;20427;-69
2022/07/31 04:40:11;;;;;;;2.33;2.00;;;24.70;58.20;;;;;;5112966;28;20391;-69
2022/07/31 04:42:36;;;;;;;2.30;2.10;;;24.70;58.20;;;;;;5112875;28;20388;-68
2022/07/31 04:45:02;;;;;;;2.13;1.92;;;24.70;58.20;;;;;;5113023;28;20387;-68
2022/07/31 04:47:28;;;;;;;2.30;2.10;;;24.70;58.30;;;;;;5113287;28;20411;-69
2022/07/31 04:49:53;;;;;;;2.20;2.00;;;24.70;58.30;;;;;;5095115;28;20442;-69
2022/07/31 04:52:19;;;;;;;2.10;1.90;;;24.70;58.30;;;;;;5113307;28;20887;-69
2022/07/31 04:54:45;;;;;;;2.20;2.00;;;24.70;58.30;;;;;;5112904;28;20403;-68
2022/07/31 04:57:10;;;;;;;2.30;2.10;;;24.70;58.30;;;;;;5094973;28;20385;-70
2022/07/31 04:59:36;;;;;;;2.58;2.38;;;24.70;58.30;;;;;;5095010;28;20462;-70
2022/07/31 05:02:01;;;;;;;2.20;2.00;;;24.70;58.90;;;;;;5094926;28;20832;-69
2022/07/31 05:04:27;;;;;;;2.38;2.10;;;24.70;58.30;;;;;;5094595;28;20381;-69
2022/07/31 05:06:53;;;;;;;2.50;2.30;;;24.70;58.30;;;;;;5094060;28;20409;-69
2022/07/31 05:09:23;;;;;;;2.22;2.03;;;24.70;58.30;;;;;;5112730;28;20388;-69
2022/07/31 05:11:49;;;;;;;2.10;1.90;;;24.60;58.30;;;;;;5112955;28;20413;-69
2022/07/31 05:14:16;;;;;;;2.35;2.15;;;24.70;58.30;;;;;;5112819;28;20467;-69
2022/07/31 05:16:43;;;;;;;2.00;1.80;;;24.70;58.30;;;;;;5112723;28;20376;-68
2022/07/31 05:19:10;;;;;;;2.28;2.08;;;24.70;58.30;;;;;;5112564;28;20745;-69
2022/07/31 05:21:36;;;;;;;2.30;2.10;;;24.70;58.20;;;;;;5112876;28;20373;-69
2022/07/31 05:24:02;;;;;;;2.00;1.90;;;24.70;58.30;;;;;;5094467;28;20395;-69
2022/07/31 05:26:29;;;;;;;2.20;2.00;;;24.70;58.30;;;;;;5112566;28;20385;-69
2022/07/31 05:28:56;;;;;;;2.30;2.10;;;24.70;58.20;;;;;;5093059;28;20750;-69
2022/07/31 05:31:22;;;;;;;2.10;1.90;;;24.70;58.40;;;;;;5112501;28;20385;-69
2022/07/31 05:33:50;;;;;;;2.10;1.90;;;24.70;58.30;;;;;;5112608;28;20396;-69
2022/07/31 05:36:16;;;;;;;2.10;1.90;;;24.60;58.30;;;;;;5112442;28;20459;-69
2022/07/31 05:38:42;;;;;;;2.50;1.97;;;24.70;58.40;;;;;;5112249;28;20591;-69
2022/07/31 05:41:08;;;;;;;2.78;2.10;;;24.60;58.30;;;;;;5112087;28;20384;-68
2022/07/31 05:43:33;;;;;;;3.70;2.20;;;24.70;58.40;;;;;;5112356;28;20483;-69
2022/07/31 05:45:59;;;;;;;5.25;2.17;;;24.70;58.50;;;;;;5112263;28;20381;-70
2022/07/31 05:48:25;;;;;;;3.20;2.13;;;24.70;59.90;;;;;;5093948;28;20450;-69
2022/07/31 05:50:51;;;;;;;3.58;2.72;;;24.70;59.30;;;;;;5111848;28;20383;-71
2022/07/31 05:53:19;;;;;;;7.47;4.72;;;24.70;59.20;;;;;;5093799;28;20408;-71
2022/07/31 05:55:46;;;;;;;6.28;3.47;;;24.80;60.50;;;;;;5111705;28;20384;-71
2022/07/31 05:58:12;;;;;;;7.43;3.92;;;24.80;60.20;;;;;;5093678;28;20946;-70
2022/07/31 06:00:39;;;;;;;7.05;3.70;;;24.80;61.30;;;;;;5093624;28;20398;-69
2022/07/31 06:03:04;;;;;;;3.35;2.78;;;24.80;60.70;;;;;;5111737;28;20441;-69
2022/07/31 06:05:31;;;;;;;5.13;2.80;;;24.80;60.00;;;;;;5112125;28;20393;-70
2022/07/31 06:08:00;;;;;;;3.47;2.88;;;24.80;59.50;;;;;;5111673;28;20507;-70
2022/07/31 06:10:27;;;;;;;3.83;2.75;;;24.70;59.20;;;;;;5093573;28;20384;-70
2022/07/31 06:12:53;;;;;;;3.75;2.83;;;24.70;59.20;;;;;;5093204;28;20411;-70
2022/07/31 06:15:19;;;;;;;3.75;2.65;;;24.70;59.10;;;;;;5111785;28;20425;-70
2022/07/31 06:17:44;;;;;;;3.78;2.65;;;24.70;59.20;;;;;;5093599;28;20396;-70
2022/07/31 06:20:10;;;;;;;4.25;2.70;;;24.70;59.00;;;;;;5111757;28;20748;-71
2022/07/31 06:22:38;;;;;;;4.03;2.60;;;24.70;59.10;;;;;;5111735;28;20381;-70
2022/07/31 06:25:08;;;;;;;4.40;2.72;;;24.70;59.00;;;;;;5093209;28;20433;-69
2022/07/31 06:27:35;;;;;;;4.00;2.72;;;24.70;59.10;;;;;;5093527;28;20408;-69
2022/07/31 06:30:02;;;;;;;3.88;3.00;;;24.70;59.30;;;;;;5111850;28;20389;-69
2022/07/31 06:32:28;;;;;;;4.80;2.60;;;24.70;59.10;;;;;;5111791;28;20422;-69
2022/07/31 06:34:53;;;;;;;4.93;2.80;;;24.70;57.60;;;;;;5111301;28;20388;-69
2022/07/31 06:37:19;;;;;;;3.80;2.53;;;24.70;59.10;;;;;;5111402;28;20744;-68
2022/07/31 06:39:44;;;;;;;3.23;2.80;;;24.70;58.80;;;;;;5112666;28;20384;-68
2022/07/31 06:42:16;;;;;;;3.70;3.08;;;24.70;58.70;;;;;;5097563;28;20391;-68
2022/07/31 06:44:42;;;;;;;5.18;2.83;;;24.70;58.70;;;;;;5097453;28;20377;-68
2022/07/31 06:47:08;;;;;;;3.53;2.70;;;24.70;58.80;;;;;;5114978;28;20913;-68
2022/07/31 06:49:33;;;;;;;4.53;2.70;;;24.70;58.80;;;;;;5115491;28;20463;-68
2022/07/31 06:51:59;;;;;;;3.80;2.60;;;24.70;59.10;;;;;;5097581;28;20388;-69
2022/07/31 06:54:25;;;;;;;4.28;2.67;;;24.70;58.60;;;;;;5097245;28;20398;-68
2022/07/31 06:56:51;;;;;;;3.63;2.65;;;24.60;58.50;;;;;;5096724;28;20385;-68
2022/07/31 06:59:16;;;;;;;4.13;2.70;;;24.70;58.50;;;;;;5115528;28;20419;-68
2022/07/31 07:01:42;;;;;;;3.97;2.90;;;24.70;58.70;;;;;;5115565;28;20748;-68
2022/07/31 07:04:08;;;;;;;4.05;2.95;;;24.60;58.50;;;;;;5097158;28;20869;-68
2022/07/31 07:06:33;;;;;;;3.33;2.73;;;24.60;58.50;;;;;;5115365;28;20819;-68
2022/07/31 07:08:59;;;;;;;4.65;2.70;;;24.60;58.50;;;;;;5095713;28;20415;-69
2022/07/31 07:11:25;;;;;;;3.20;2.72;;;24.60;58.60;;;;;;5114776;28;20740;-69
2022/07/31 07:13:50;;;;;;;4.13;3.10;;;24.60;58.60;;;;;;5096996;28;20392;-68
2022/07/31 07:16:16;;;;;;;3.60;3.03;;;24.60;58.60;;;;;;5115132;28;20380;-68
2022/07/31 07:18:42;;;;;;;3.57;2.70;;;24.60;58.70;;;;;;5115207;28;20380;-68
2022/07/31 07:21:08;;;;;;;3.63;2.78;;;24.60;58.40;;;;;;5114653;28;20487;-68
2022/07/31 07:23:33;;;;;;;3.97;3.10;;;24.60;58.80;;;;;;5115066;28;20943;-69
2022/07/31 07:25:59;;;;;;;3.70;2.90;;;24.60;58.80;;;;;;5115088;28;20745;-68
2022/07/31 07:28:25;;;;;;;3.10;2.80;;;24.60;58.90;;;;;;5114800;28;20528;-68
2022/07/31 07:30:50;;;;;;;3.97;2.90;;;24.60;58.70;;;;;;5114803;28;20501;-68
2022/07/31 07:33:16;;;;;;;3.83;2.88;;;24.60;58.80;;;;;;5096332;28;20738;-69
2022/07/31 07:35:42;;;;;;;3.10;2.83;;;24.60;58.80;;;;;;5114917;28;20377;-68
2022/07/31 07:38:08;;;;;;;3.72;2.88;;;24.60;58.70;;;;;;5114776;28;20392;-68
2022/07/31 07:40:35;;;;;;;3.30;2.65;;;24.60;58.70;;;;;;5114743;28;20388;-68
2022/07/31 07:43:00;;;;;;;3.47;2.90;;;24.60;58.70;;;;;;5096028;28;20398;-68
2022/07/31 07:45:26;;;;;;;4.17;2.80;;;24.60;58.70;;;;;;5114728;28;20376;-68
2022/07/31 07:47:51;;;;;;;4.47;2.60;;;24.60;59.00;;;;;;5114457;28;20811;-69
2022/07/31 07:50:17;;;;;;;3.13;2.70;;;24.60;59.20;;;;;;5114549;28;20419;-68
2022/07/31 07:52:43;;;;;;;5.27;2.90;;;24.60;59.00;;;;;;5113114;28;20373;-68
2022/07/31 07:55:11;;;;;;;13.10;3.42;;;24.60;58.60;;;;;;5095434;28;20572;-68
2022/07/31 07:57:37;;;;;;;11.95;3.75;;;24.60;58.60;;;;;;5113615;28;20377;-69
2022/07/31 08:00:07;;;;;;;10.13;3.70;;;24.60;58.70;;;;;;5114088;28;20386;-69
2022/07/31 08:02:33;;;;;;;13.32;3.80;;;24.60;58.70;;;;;;5095575;28;20396;-68
2022/07/31 08:04:59;;;;;;;7.38;3.45;;;24.60;58.60;;;;;;5113862;28;20377;-68
2022/07/31 08:07:38;;;;;;;8.45;3.65;;;24.60;58.70;;;;;;5095508;28;20412;-69
2022/07/31 08:10:05;;;;;;;9.50;3.20;;;24.60;58.50;;;;;;5095456;28;20407;-69
2022/07/31 08:12:31;;;;;;;8.27;3.20;;;24.60;58.50;;;;;;5095831;28;20898;-69
2022/07/31 08:14:57;;;;;;;4.38;2.70;;;24.60;58.50;;;;;;5113698;28;20450;-69
2022/07/31 08:17:23;;;;;;;6.13;3.00;;;24.60;58.50;;;;;;5095758;28;20868;-69
2022/07/31 08:19:48;;;;;;;5.85;3.10;;;24.60;58.60;;;;;;5114058;28;20396;-69
2022/07/31 08:22:14;;;;;;;4.55;3.25;;;24.60;58.70;;;;;;5113946;28;20387;-69
2022/07/31 08:24:40;;;;;;;4.40;2.83;;;24.60;58.70;;;;;;5113268;28;20396;-69
2022/07/31 08:27:24;;;;;;;6.47;2.90;;;24.60;58.70;;;;;;5112888;28;20387;-69
2022/07/31 08:30:00;;;;;;;5.68;2.80;;;24.60;58.70;;;;;;5113891;28;20872;-69
2022/07/31 08:32:26;;;;;;;3.83;2.92;;;24.60;58.70;;;;;;5113810;28;20463;-69
2022/07/31 08:34:54;;;;;;;4.95;2.80;;;24.70;58.80;;;;;;5095307;28;20399;-69
2022/07/31 08:37:20;;;;;;;3.70;2.80;;;24.70;58.80;;;;;;5095181;28;20449;-69
2022/07/31 08:39:48;;;;;;;5.60;3.20;;;24.70;58.80;;;;;;5095304;28;20385;-69
2022/07/31 08:42:14;;;;;;;3.85;2.67;;;24.70;58.90;;;;;;5113547;28;20449;-69
2022/07/31 08:44:42;;;;;;;3.95;3.08;;;24.70;58.90;;;;;;5113191;28;20963;-69
2022/07/31 08:47:13;;;;;;;3.47;2.72;;;24.70;58.80;;;;;;5112913;28;20479;-69
2022/07/31 08:49:47;;;;;;;4.18;2.67;;;24.70;58.80;;;;;;5095236;28;20399;-69
2022/07/31 08:52:23;;;;;;;3.63;2.80;;;24.70;58.80;;;;;;5095076;28;20395;-69
2022/07/31 08:54:51;;;;;;;4.32;2.80;;;24.70;58.80;;;;;;5113221;28;20385;-68
2022/07/31 08:57:17;;;;;;;5.22;2.60;;;24.70;58.80;;;;;;5112809;28;20407;-69
2022/07/31 08:59:43;;;;;;;3.30;2.63;;;24.70;58.80;;;;;;5094989;28;20895;-69
2022/07/31 09:02:10;;;;;;;3.92;2.70;;;24.70;58.80;;;;;;5113060;28;20718;-69
2022/07/31 09:04:36;;;;;;;3.92;2.90;;;24.70;58.80;;;;;;5113091;28;20388;-69
2022/07/31 09:07:02;;;;;;;4.35;2.60;;;24.70;58.80;;;;;;5112310;28;20898;-69
2022/07/31 09:09:29;;;;;;;4.32;2.95;;;24.70;58.90;;;;;;5112935;28;20902;-69
2022/07/31 09:11:56;;;;;;;7.13;3.20;;;24.70;58.90;;;;;;5112733;28;20432;-69
2022/07/31 09:14:30;;;;;;;13.45;3.22;;;24.70;59.10;;;;;;5112892;28;20864;-69
2022/07/31 09:16:56;;;;;;;9.52;3.15;;;24.80;59.30;;;;;;5112754;28;20393;-69
2022/07/31 09:19:24;;;;;;;16.05;3.28;;;24.80;59.40;;;;;;5112520;28;20392;-69
2022/07/31 09:21:51;;;;;;;10.93;3.63;;;24.80;59.50;;;;;;5112895;28;20455;-69
2022/07/31 09:24:29;;;;;;;14.43;3.70;;;24.80;59.50;;;;;;5112442;28;20381;-69
2022/07/31 09:27:04;;;;;;;13.43;3.63;;;24.80;59.40;;;;;;5112517;28;20382;-69
2022/07/31 09:29:40;;;;;;;9.25;3.05;;;24.80;59.30;;;;;;5112626;28;20447;-68
2022/07/31 09:32:11;;;;;;;8.13;2.90;;;24.80;59.40;;;;;;5112744;28;20412;-69
2022/07/31 09:34:37;;;;;;;7.80;3.40;;;24.80;59.40;;;;;;5112714;28;20450;-69
2022/07/31 09:37:10;;;;;;;7.78;3.30;;;24.80;59.40;;;;;;5111999;28;20970;-69
2022/07/31 09:39:36;;;;;;;7.55;3.00;;;24.80;59.40;;;;;;5094282;28;20414;-69
2022/07/31 09:42:03;;;;;;;6.03;2.90;;;24.80;59.40;;;;;;5112479;28;20381;-69
2022/07/31 09:44:40;;;;;;;6.20;2.72;;;24.80;59.50;;;;;;5094152;28;20384;-69
2022/07/31 09:47:06;;;;;;;5.07;2.92;;;24.80;59.40;;;;;;5111810;28;20377;-69
2022/07/31 09:49:33;;;;;;;5.07;3.00;;;24.80;59.50;;;;;;5112438;28;20400;-69
2022/07/31 09:51:59;;;;;;;4.47;2.80;;;24.80;59.50;;;;;;5094200;28;20387;-69
2022/07/31 09:54:27;;;;;;;4.80;3.03;;;24.80;59.50;;;;;;5112210;28;20388;-69
2022/07/31 09:56:53;;;;;;;5.18;2.70;;;24.80;59.50;;;;;;5094236;28;20373;-69
2022/07/31 09:59:19;;;;;;;4.78;3.10;;;24.80;59.50;;;;;;5093838;28;21009;-69
2022/07/31 10:01:49;;;;;;;3.97;2.67;;;24.80;59.50;;;;;;5112148;28;20471;-69
2022/07/31 10:04:19;;;;;;;5.57;2.83;;;24.80;59.60;;;;;;5112213;28;20384;-69
2022/07/31 10:06:50;;;;;;;16.10;3.30;;;24.80;59.80;;;;;;5112033;28;20433;-70
2022/07/31 10:09:20;;;;;;;16.03;5.43;;;24.80;60.00;;;;;;5093357;28;20821;-70
2022/07/31 10:11:48;;;;;;;9.80;5.43;;;24.80;61.00;;;;;;5111704;28;20373;-69
2022/07/31 10:14:38;;;;;;;11.77;5.53;;;24.90;61.30;;;;;;5110880;28;20384;-69
2022/07/31 10:17:04;;;;;;;9.68;3.88;;;24.90;61.10;;;;;;5111362;28;20388;-69
2022/07/31 10:19:35;;;;;;;10.32;3.80;;;25.00;61.20;;;;;;5111758;28;20864;-69
2022/07/31 10:22:03;;;;;;;6.40;3.40;;;24.90;60.60;;;;;;5111680;28;20872;-69
2022/07/31 10:24:32;;;;;;;6.65;3.70;;;24.90;61.00;;;;;;5111778;28;20373;-69
2022/07/31 10:26:58;;;;;;;7.68;3.53;;;24.90;60.60;;;;;;5111487;28;20888;-68
2022/07/31 10:29:25;;;;;;;4.88;3.40;;;25.00;60.70;;;;;;5111378;28;20413;-69
2022/07/31 10:31:51;;;;;;;6.97;3.60;;;24.90;60.50;;;;;;5111788;28;21167;-69
2022/07/31 10:34:17;;;;;;;9.63;3.40;;;24.90;60.70;;;;;;5111325;28;20395;-70
2022/07/31 10:36:47;;;;;;;5.90;3.13;;;24.90;60.80;;;;;;5111909;28;20407;-69
2022/07/31 10:39:15;;;;;;;6.88;3.50;;;25.00;60.90;;;;;;5111306;28;20479;-69
2022/07/31 10:41:47;;;;;;;6.20;3.50;;;25.00;60.80;;;;;;5111884;28;20392;-69
2022/07/31 10:44:25;;;;;;;4.72;3.10;;;25.00;60.80;;;;;;5111897;28;20458;-70
2022/07/31 10:46:51;;;;;;;4.77;2.90;;;25.00;60.80;;;;;;5111423;28;20890;-69
2022/07/31 10:49:17;;;;;;;5.35;2.90;;;25.00;60.80;;;;;;5111068;28;20408;-69
2022/07/31 10:51:47;;;;;;;6.53;3.10;;;25.10;60.50;;;;;;5111559;28;20472;-69
2022/07/31 10:54:14;;;;;;;4.05;2.95;;;25.10;60.40;;;;;;5111190;28;20399;-69
2022/07/31 10:56:44;;;;;;;7.50;5.55;;;25.00;60.60;;;;;;5111666;28;20384;-69
2022/07/31 10:59:10;;;;;;;9.63;6.03;;;25.10;61.20;;;;;;5111131;28;20876;-69
2022/07/31 11:01:46;;;;;;;6.88;4.25;;;25.10;61.70;;;;;;5111507;28;20416;-69
2022/07/31 11:04:12;;;;;;;6.03;3.58;;;25.10;61.80;;;;;;5111488;28;20872;-69
2022/07/31 11:06:41;;;;;;;7.28;3.25;;;25.10;61.60;;;;;;5111744;28;20388;-69
2022/07/31 11:09:07;;;;;;;5.93;3.40;;;25.10;61.70;;;;;;5111182;28;20471;-69
2022/07/31 11:11:35;;;;;;;8.65;3.22;;;25.10;61.50;;;;;;5111466;28;20931;-69
2022/07/31 11:14:02;;;;;;;5.57;3.30;;;25.10;61.20;;;;;;5111153;28;20396;-69
2022/07/31 11:16:28;;;;;;;6.70;3.38;;;25.10;61.20;;;;;;5093249;28;20461;-70
2022/07/31 11:19:03;;;;;;;5.50;3.60;;;25.10;61.30;;;;;;5092843;28;20428;-69
2022/07/31 11:21:30;;;;;;;4.93;2.97;;;25.10;61.20;;;;;;5092486;28;20427;-69
2022/07/31 11:23:56;;;;;;;5.63;3.17;;;25.20;61.20;;;;;;5093095;28;20376;-69
2022/07/31 11:26:22;;;;;;;7.78;3.20;;;25.10;61.00;;;;;;5111101;28;20817;-69
2022/07/31 11:28:48;;;;;;;7.05;3.15;;;25.20;60.80;;;;;;5113887;28;20412;-73
2022/07/31 11:31:13;;;;;;;5.80;2.83;;;25.10;60.50;;;;;;5114040;27;20396;-70
2022/07/31 11:33:42;;;;;;;6.57;2.83;;;25.20;60.30;;;;;;5110532;28;20863;-69
2022/07/31 11:36:23;;;;;;;4.55;2.80;;;25.20;60.10;;;;;;5113931;28;20515;-70
2022/07/31 11:38:51;;;;;;;5.78;2.88;;;25.20;59.90;;;;;;5115264;28;20372;-69
2022/07/31 11:41:20;;;;;;;5.68;2.85;;;25.10;59.70;;;;;;5115514;28;20388;-69
2022/07/31 11:43:48;;;;;;;4.60;2.90;;;25.20;59.90;;;;;;5115822;28;20433;-70
2022/07/31 11:46:32;;;;;;;8.60;3.05;;;25.20;59.70;;;;;;5116502;28;20467;-70
2022/07/31 11:48:59;;;;;;;6.53;2.78;;;25.10;59.50;;;;;;5114803;28;20412;-69
2022/07/31 11:51:26;;;;;;;4.57;2.90;;;25.20;59.80;;;;;;5114080;28;20445;-69
2022/07/31 11:53:54;;;;;;;6.22;2.88;;;25.20;59.70;;;;;;5113784;28;20380;-69
2022/07/31 11:56:20;;;;;;;6.57;3.10;;;25.20;59.40;;;;;;5114257;28;20388;-69
2022/07/31 11:58:51;;;;;;;4.15;3.30;;;25.20;59.50;;;;;;5114189;28;20410;-69
2022/07/31 12:01:18;;;;;;;15.00;12.05;;;25.20;59.40;;;;;;5113781;28;20368;-69
2022/07/31 12:03:45;;;;;;;15.20;9.73;;;25.30;59.40;;;;;;5115655;27;20456;-70
2022/07/31 12:06:11;;;;;;;15.68;10.77;;;25.30;59.40;;;;;;5114804;28;20400;-69
2022/07/31 12:08:39;;;;;;;13.20;10.13;;;25.30;59.10;;;;;;5127274;27;20913;-69
2022/07/31 12:11:07;;;;;;;14.43;9.77;;;25.40;59.20;;;;;;5115624;27;20870;-70
2022/07/31 12:13:33;;;;;;;14.20;9.55;;;25.40;59.10;;;;;;5134303;27;20874;-69
2022/07/31 12:16:00;;;;;;;13.23;9.25;;;25.40;59.10;;;;;;5133863;27;20383;-69
2022/07/31 12:18:27;;;;;;;15.23;9.63;;;25.50;59.70;;;;;;5113789;28;20418;-69
2022/07/31 12:20:58;;;;;;;14.70;9.48;;;25.50;59.00;;;;;;5119359;27;20386;-68
2022/07/31 12:23:24;;;;;;;19.30;14.93;;;25.50;59.10;;;;;;5122283;27;20713;-69
2022/07/31 12:25:51;;;;;;;20.88;12.98;;;25.60;59.50;;;;;;5110165;27;20383;-69
2022/07/31 12:28:16;;;;;;;23.13;14.77;;;25.60;59.50;;;;;;5114335;28;20411;-69
2022/07/31 12:30:43;;;;;;;23.33;17.00;;;25.60;59.50;;;;;;5113702;28;20400;-69
2022/07/31 12:33:10;;;;;;;19.67;13.77;;;25.70;59.60;;;;;;5113371;28;20464;-69
2022/07/31 12:35:41;;;;;;;19.50;14.05;;;25.70;59.50;;;;;;5095365;28;20793;-70
2022/07/31 12:38:07;;;;;;;22.30;15.00;;;25.70;60.00;;;;;;5094919;28;20380;-69
2022/07/31 12:40:33;;;;;;;19.95;13.63;;;25.80;59.70;;;;;;5114647;28;20475;-69
2022/07/31 12:42:59;;;;;;;22.92;15.35;;;25.80;59.50;;;;;;5114328;28;20425;-69
2022/07/31 12:45:35;;;;;;;26.15;15.18;;;25.80;60.00;;;;;;5113451;28;20388;-69
2022/07/31 12:48:02;;;;;;;38.00;23.48;;;25.80;60.10;;;;;;5107289;28;20451;-70